Gettysburg, PA (17325)

11:46 PM EST on December 04, 2016 (GMT -0500)
Lake Heritage | | Change Station

Elev 505 ft 39.81 °N, 77.19 °W | Updated 18 seconds ago

Overcast
Overcast
38.7 °F
Feels Like 39 °F
N
0.0
Wind Variable Wind from South
Gusts 0.0 mph

Today
High -- | Low -- °F
--% Chance of Precip.
Yesterday
High -- | Low -- °F
Precip. -- in
Pressure 30.01 in
Visibility 8.0 miles
Clouds Mostly Cloudy 1500 ft
Overcast 3500 ft
Windchill 39 °F
Dew Point 33 °F
Humidity 79%
Rainfall 0.00 in
Snow Depth Not available.
7:14 AM 4:44 PM
Waxing Crescent, 28% visible
SPECI KRYT 050429Z AUTO 24003KT 8SM -RA BKN015 OVC035 03/00 A3001 RMK AO2 RAE00B24 P0000 TSNO $
Pressure 30.01 in
Visibility 8.0 miles
Clouds Mostly Cloudy 1500 ft
Overcast 3500 ft
Windchill 39 °F
Dew Point 33 °F
Humidity 79%
Rainfall 0.00 in
Snow Depth Not available.
7:14 AM 4:44 PM
Waxing Crescent, 28% visible
SPECI KRYT 050429Z AUTO 24003KT 8SM -RA BKN015 OVC035 03/00 A3001 RMK AO2 RAE00B24 P0000 TSNO $

10-Day Weather Forecast

Almanac

Astronomy

Dec. 04, 2016 Rise Set
Actual Time
Civil Twilight
Nautical Twilight
Astronomical Twilight
Moon
Length of Visible Light
Length of Day
Tomorrow will be .
, % of the Moon is Illuminated

Today's Extremes

State Highs State Lows

Community

WunderPhotos

Upload Photos

1,955,763 photos uploaded!

WunderBlog® & News

Nearby

Air Quality

  Air Quality AQ Index Pollutant
Not available.

Snow Depth

Station Depth Elevation

Earthquake Activity

City Distance Mag. Time & Date
Minimum magnitude displayed is 2.5.

Coastal Water Temperatures

Place Temperature

Stations

Nearby Weather Stations

Station Location Temp. Windchill Dew Point Humidity Wind Precip. Elev Updated Type
                   

Watches & Warnings

There are currently no watches in effect.